Time;durP1;ratioP1;P1;durP2;ratioP2;P2;SDS_P1;SDS_P2;PMS_P1;PMS_P2;Temp;Humidity;BMP_temperature;BMP_pressure;BME280_temperature;BME280_humidity;BME280_pressure;Samples;Min_cycle;Max_cycle;Signal;HPM_P1;HPM_P2
2021/09/17 05:22:14;;;;;;;25.77;23.90;;;14.30;99.90;;;;;;5647941;23;20540;-73
2021/09/17 05:24:41;;;;;;;24.17;22.40;;;14.30;99.90;;;;;;4984222;28;20534;-72
2021/09/17 05:27:12;;;;;;;26.47;24.30;;;14.30;99.90;;;;;;4973344;28;20435;-72
2021/09/17 05:29:39;;;;;;;25.27;23.40;;;14.40;99.90;;;;;;4977605;28;20550;-72
2021/09/17 05:32:06;;;;;;;24.60;23.00;;;14.40;99.90;;;;;;4979167;28;20467;-73
2021/09/17 05:34:33;;;;;;;25.17;23.07;;;14.40;99.90;;;;;;4973051;28;20929;-73
2021/09/17 05:37:00;;;;;;;24.73;23.03;;;14.50;99.90;;;;;;4972480;28;20487;-73
2021/09/17 05:39:28;;;;;;;24.80;23.20;;;14.60;99.90;;;;;;4973113;28;20539;-72
2021/09/17 05:41:55;;;;;;;24.30;22.50;;;14.70;99.90;;;;;;4972611;28;20455;-73
2021/09/17 05:44:21;;;;;;;26.30;24.03;;;14.80;99.90;;;;;;4972724;28;20459;-73
2021/09/17 05:46:48;;;;;;;25.50;23.70;;;14.90;99.90;;;;;;4972596;28;20451;-72
2021/09/17 05:49:15;;;;;;;26.50;24.60;;;14.90;99.90;;;;;;4972549;28;20926;-73
2021/09/17 05:51:41;;;;;;;24.70;23.20;;;15.00;99.90;;;;;;4972527;28;20470;-72
2021/09/17 05:54:08;;;;;;;24.50;22.50;;;15.10;99.90;;;;;;4972649;28;20822;-73
2021/09/17 05:56:36;;;;;;;22.37;20.97;;;15.10;99.90;;;;;;4972414;28;20491;-72
2021/09/17 05:59:03;;;;;;;23.37;21.70;;;15.10;99.90;;;;;;4972548;28;20451;-72
2021/09/17 06:01:30;;;;;;;24.17;22.57;;;15.20;99.90;;;;;;4972528;28;20518;-73
2021/09/17 06:03:57;;;;;;;24.77;23.20;;;15.10;99.90;;;;;;4972343;28;20463;-73
2021/09/17 06:06:23;;;;;;;22.60;21.00;;;15.10;99.90;;;;;;4972280;28;20459;-73
2021/09/17 06:08:50;;;;;;;24.60;22.77;;;15.10;99.90;;;;;;4972304;28;20957;-72
2021/09/17 06:11:17;;;;;;;25.30;23.60;;;15.20;99.90;;;;;;4972524;28;20463;-73
2021/09/17 06:13:45;;;;;;;23.77;22.23;;;15.30;99.90;;;;;;4972505;28;20459;-73
2021/09/17 06:16:12;;;;;;;24.00;22.57;;;15.40;99.90;;;;;;4972475;28;20464;-72
2021/09/17 06:18:39;;;;;;;23.33;21.63;;;15.40;99.90;;;;;;4972187;28;20447;-73
2021/09/17 06:21:06;;;;;;;24.50;22.90;;;15.50;99.90;;;;;;4972003;28;20475;-73
2021/09/17 06:23:32;;;;;;;24.00;22.40;;;15.50;99.90;;;;;;4972143;28;20483;-72
2021/09/17 06:25:59;;;;;;;23.83;22.27;;;15.50;99.90;;;;;;4972307;28;20554;-72
2021/09/17 06:28:26;;;;;;;24.67;23.00;;;15.60;99.90;;;;;;4972080;28;20459;-72
2021/09/17 06:30:54;;;;;;;23.73;21.93;;;15.60;99.90;;;;;;4976965;28;20470;-72
2021/09/17 06:33:21;;;;;;;23.83;22.20;;;15.80;99.90;;;;;;4977469;28;20483;-72
2021/09/17 06:35:47;;;;;;;23.70;22.20;;;15.90;99.90;;;;;;4972118;28;20455;-72
2021/09/17 06:38:14;;;;;;;24.47;22.33;;;16.00;99.90;;;;;;4971789;28;20494;-71
2021/09/17 06:40:41;;;;;;;21.60;20.20;;;16.10;99.90;;;;;;4972028;28;20450;-71
2021/09/17 06:43:08;;;;;;;22.93;21.33;;;16.30;99.90;;;;;;4971574;28;20455;-72
2021/09/17 06:45:34;;;;;;;24.03;22.13;;;16.20;99.90;;;;;;4971924;28;20451;-71
2021/09/17 06:48:02;;;;;;;23.20;21.20;;;16.30;99.90;;;;;;4972394;28;20829;-72
2021/09/17 06:50:30;;;;;;;24.17;22.13;;;16.40;99.90;;;;;;4976158;28;20459;-72
2021/09/17 06:52:58;;;;;;;23.80;22.10;;;16.30;99.90;;;;;;4975866;28;20951;-72
2021/09/17 06:55:26;;;;;;;24.37;22.70;;;16.40;99.90;;;;;;4975645;28;20459;-73
2021/09/17 06:57:55;;;;;;;24.87;23.20;;;16.50;99.90;;;;;;4975638;28;20491;-71
2021/09/17 07:00:24;;;;;;;24.40;22.80;;;16.50;99.90;;;;;;4975746;28;20452;-72
2021/09/17 07:02:51;;;;;;;31.70;22.20;;;16.60;99.90;;;;;;4975559;28;20447;-71
2021/09/17 07:05:20;;;;;;;24.00;22.20;;;16.70;99.90;;;;;;4975297;28;20902;-72
2021/09/17 07:07:46;;;;;;;24.13;22.40;;;16.90;99.90;;;;;;4975408;28;20482;-72
2021/09/17 07:10:16;;;;;;;23.37;21.20;;;17.10;99.90;;;;;;4976077;28;20458;-72
2021/09/17 07:12:43;;;;;;;24.43;22.60;;;17.20;99.90;;;;;;4975647;28;20897;-70
2021/09/17 07:15:12;;;;;;;23.97;22.20;;;17.10;99.90;;;;;;4975601;28;20455;-72
2021/09/17 07:17:39;;;;;;;25.03;23.27;;;17.10;99.90;;;;;;4975521;28;20594;-69
2021/09/17 07:20:06;;;;;;;23.83;22.10;;;17.10;99.90;;;;;;4975445;28;20482;-71
2021/09/17 07:22:34;;;;;;;24.57;22.57;;;17.30;99.90;;;;;;4975044;28;20487;-71
2021/09/17 07:25:02;;;;;;;24.57;22.87;;;17.20;99.90;;;;;;4973279;28;20525;-71
2021/09/17 07:27:28;;;;;;;24.40;22.57;;;17.30;99.90;;;;;;4975740;28;20463;-72
2021/09/17 07:29:55;;;;;;;23.60;22.17;;;17.30;99.90;;;;;;4975631;28;20452;-71
2021/09/17 07:32:22;;;;;;;23.00;21.50;;;17.40;99.90;;;;;;4975457;28;20463;-72
2021/09/17 07:34:49;;;;;;;23.20;21.63;;;17.40;99.90;;;;;;4975081;28;20463;-72
2021/09/17 07:37:15;;;;;;;23.53;21.93;;;17.50;99.90;;;;;;4974882;28;20491;-73
2021/09/17 07:39:43;;;;;;;22.93;21.10;;;17.50;99.90;;;;;;4975055;28;20451;-72
2021/09/17 07:42:11;;;;;;;22.87;21.13;;;17.70;99.90;;;;;;4974887;28;21085;-72
2021/09/17 07:44:38;;;;;;;23.67;21.97;;;17.60;99.90;;;;;;4974918;28;20455;-72
2021/09/17 07:47:05;;;;;;;23.30;21.53;;;17.80;99.90;;;;;;4974754;28;20451;-72
2021/09/17 07:49:32;;;;;;;23.53;21.80;;;17.90;99.90;;;;;;4974611;28;20825;-71
2021/09/17 07:51:59;;;;;;;22.27;20.83;;;17.90;99.90;;;;;;4974865;28;20459;-73
2021/09/17 07:54:26;;;;;;;22.57;21.07;;;17.90;99.90;;;;;;4974686;28;20455;-72
2021/09/17 07:56:54;;;;;;;23.10;21.43;;;18.00;99.90;;;;;;4974511;28;20484;-72
2021/09/17 07:59:21;;;;;;;22.73;21.40;;;18.10;99.90;;;;;;4974484;28;20458;-73
2021/09/17 08:01:48;;;;;;;23.60;21.33;;;18.10;99.90;;;;;;4974275;28;20826;-72
2021/09/17 08:04:15;;;;;;;22.87;21.17;;;18.20;99.90;;;;;;4974689;28;20833;-73
2021/09/17 08:06:41;;;;;;;23.67;21.70;;;18.20;99.90;;;;;;4974466;28;20467;-73
2021/09/17 08:09:08;;;;;;;22.40;21.00;;;18.70;99.90;;;;;;4972712;28;20447;-72
2021/09/17 08:11:36;;;;;;;23.30;21.70;;;18.90;99.90;;;;;;4973240;28;20556;-73
2021/09/17 08:14:04;;;;;;;21.20;19.80;;;19.00;99.90;;;;;;4974920;28;20452;-72
2021/09/17 08:16:31;;;;;;;22.60;20.93;;;19.20;99.90;;;;;;4974882;28;21045;-72
2021/09/17 08:18:58;;;;;;;22.67;21.07;;;19.20;99.90;;;;;;4973130;28;20491;-72
2021/09/17 08:21:25;;;;;;;22.73;21.43;;;19.50;99.90;;;;;;4972767;28;20479;-72
2021/09/17 08:23:52;;;;;;;21.93;20.33;;;19.90;99.90;;;;;;4974765;28;20460;-73
2021/09/17 08:26:18;;;;;;;22.77;21.17;;;20.00;99.90;;;;;;4974526;28;20452;-72
2021/09/17 08:28:46;;;;;;;20.60;19.17;;;20.10;99.90;;;;;;4974788;28;20443;-73
2021/09/17 08:31:14;;;;;;;22.37;20.97;;;20.60;99.90;;;;;;4972512;28;21169;-73
2021/09/17 08:33:42;;;;;;;21.60;20.20;;;20.80;99.90;;;;;;4972371;28;20451;-73
2021/09/17 08:36:09;;;;;;;20.80;19.50;;;21.00;99.90;;;;;;4973643;28;20970;-72
2021/09/17 08:38:37;;;;;;;21.07;19.67;;;21.50;99.90;;;;;;4971278;28;20498;-73
2021/09/17 08:41:04;;;;;;;21.37;20.07;;;21.50;99.90;;;;;;4973027;28;20456;-73
2021/09/17 08:43:31;;;;;;;20.53;19.07;;;21.70;99.90;;;;;;4971568;28;20468;-73
2021/09/17 08:45:58;;;;;;;20.73;19.23;;;21.50;99.90;;;;;;4974015;28;20809;-73
2021/09/17 08:48:28;;;;;;;21.83;20.43;;;21.80;99.90;;;;;;4973565;28;20475;-73
2021/09/17 08:50:56;;;;;;;21.87;20.47;;;21.70;99.90;;;;;;4973529;28;20455;-73
2021/09/17 08:53:22;;;;;;;20.30;18.97;;;21.70;99.90;;;;;;4971684;28;20464;-73
2021/09/17 08:55:50;;;;;;;20.80;19.30;;;21.80;99.90;;;;;;4973556;28;20463;-72
2021/09/17 08:58:16;;;;;;;21.57;19.63;;;21.80;99.90;;;;;;4973169;28;20496;-72
2021/09/17 09:00:44;;;;;;;21.63;20.13;;;21.80;99.90;;;;;;4973646;28;20475;-73
2021/09/17 09:03:25;;;;;;;23.07;21.60;;;21.80;99.90;;;;;;4973194;28;20455;-72
2021/09/17 09:05:54;;;;;;;21.00;19.70;;;21.70;99.90;;;;;;4973199;28;20456;-73
2021/09/17 09:08:24;;;;;;;20.23;19.03;;;22.00;99.90;;;;;;4973097;28;20470;-73
2021/09/17 09:10:51;;;;;;;21.93;20.50;;;22.10;99.90;;;;;;4972808;28;20746;-73
2021/09/17 09:13:18;;;;;;;21.17;19.73;;;21.90;99.90;;;;;;4972762;28;20451;-73
2021/09/17 09:15:44;;;;;;;20.63;19.13;;;22.20;99.90;;;;;;4973195;28;20454;-72
2021/09/17 09:18:13;;;;;;;22.47;20.87;;;22.20;99.90;;;;;;4972986;28;20491;-73
2021/09/17 09:20:41;;;;;;;21.77;20.40;;;22.00;99.90;;;;;;4972764;28;20573;-73
2021/09/17 09:23:16;;;;;;;22.87;21.00;;;22.00;99.90;;;;;;4972796;28;20498;-73
2021/09/17 09:25:55;;;;;;;22.97;21.47;;;22.20;99.90;;;;;;4972841;28;20458;-73
2021/09/17 09:28:24;;;;;;;23.30;21.70;;;21.80;99.90;;;;;;4972914;28;20980;-73
2021/09/17 09:30:52;;;;;;;22.37;21.07;;;21.90;99.90;;;;;;4972870;28;20479;-73
2021/09/17 09:33:30;;;;;;;23.93;22.53;;;22.20;99.90;;;;;;4972685;28;20455;-73
2021/09/17 09:36:03;;;;;;;22.57;21.17;;;22.40;99.90;;;;;;4973055;28;20459;-73
2021/09/17 09:38:37;;;;;;;24.57;22.60;;;22.70;99.90;;;;;;4972925;28;20487;-74
2021/09/17 09:41:06;;;;;;;21.83;20.63;;;22.80;99.90;;;;;;4972873;28;20475;-73
2021/09/17 09:43:34;;;;;;;23.70;21.93;;;23.20;99.90;;;;;;4972911;28;20455;-73
2021/09/17 09:46:21;;;;;;;23.20;21.67;;;22.90;99.90;;;;;;4972801;28;20459;-73
2021/09/17 09:49:06;;;;;;;23.20;21.80;;;23.10;99.90;;;;;;4972630;28;20452;-72
2021/09/17 09:51:34;;;;;;;24.90;23.10;;;23.40;99.90;;;;;;4972811;28;20800;-73
2021/09/17 09:54:05;;;;;;;21.20;19.90;;;23.60;99.90;;;;;;4972646;28;20452;-72
2021/09/17 09:56:33;;;;;;;21.30;20.20;;;24.20;99.90;;;;;;4972447;28;20459;-73
2021/09/17 09:59:03;;;;;;;22.13;20.83;;;24.40;99.50;;;;;;4972519;28;20857;-72
2021/09/17 10:01:30;;;;;;;22.80;21.10;;;24.50;99.30;;;;;;4972809;28;20816;-73
2021/09/17 10:03:57;;;;;;;22.90;21.43;;;24.40;98.90;;;;;;4972424;28;20835;-73
2021/09/17 10:06:25;;;;;;;22.40;21.10;;;24.10;98.70;;;;;;4972274;28;20950;-73
2021/09/17 10:08:53;;;;;;;22.10;20.70;;;24.00;98.80;;;;;;4972319;28;20848;-72
2021/09/17 10:11:22;;;;;;;21.53;20.13;;;24.00;98.80;;;;;;4971965;28;20468;-73
2021/09/17 10:13:49;;;;;;;21.20;19.57;;;24.20;98.40;;;;;;4972644;28;20821;-72
2021/09/17 10:16:18;;;;;;;19.43;18.10;;;24.60;97.90;;;;;;4972867;28;20455;-73
2021/09/17 10:18:45;;;;;;;19.97;18.97;;;25.40;96.40;;;;;;4972598;28;20494;-73
2021/09/17 10:21:13;;;;;;;21.37;20.03;;;25.60;95.40;;;;;;4977092;28;20474;-72
2021/09/17 10:23:44;;;;;;;19.47;18.37;;;26.10;94.30;;;;;;4971258;28;20507;-72
2021/09/17 10:26:13;;;;;;;21.23;19.33;;;26.80;92.10;;;;;;4972529;28;20558;-72
2021/09/17 10:29:05;;;;;;;19.43;18.27;;;26.90;91.30;;;;;;4972419;28;20454;-73
2021/09/17 10:31:42;;;;;;;19.23;18.23;;;27.00;90.90;;;;;;4972610;28;20451;-72
2021/09/17 10:34:36;;;;;;;18.90;17.90;;;26.90;91.00;;;;;;4972509;28;20459;-72
2021/09/17 10:37:03;;;;;;;20.93;19.60;;;26.90;90.90;;;;;;4972364;28;20460;-72
2021/09/17 10:39:30;;;;;;;19.77;18.40;;;27.20;90.50;;;;;;4972439;28;20498;-73
2021/09/17 10:42:15;;;;;;;19.27;18.27;;;27.50;90.30;;;;;;4972593;28;20802;-71
2021/09/17 10:45:18;;;;;;;18.83;17.73;;;28.50;87.30;;;;;;4972479;28;20447;-71
2021/09/17 10:47:58;;;;;;;17.37;16.30;;;28.70;85.60;;;;;;4972489;28;20871;-73
2021/09/17 10:50:43;;;;;;;17.80;16.90;;;28.40;82.40;;;;;;4972313;28;20455;-72
2021/09/17 10:53:11;;;;;;;18.57;17.63;;;28.30;83.80;;;;;;4972398;28;20795;-72
2021/09/17 10:56:02;;;;;;;17.93;17.03;;;28.30;83.00;;;;;;4972402;28;20713;-72
2021/09/17 10:58:30;;;;;;;19.07;17.97;;;28.70;81.90;;;;;;4972452;28;20578;-72
2021/09/17 11:01:01;;;;;;;20.73;19.37;;;28.30;82.20;;;;;;4972280;28;20479;-72
2021/09/17 11:03:56;;;;;;;18.93;17.93;;;28.40;82.50;;;;;;4972413;28;20961;-72
2021/09/17 11:06:27;;;;;;;19.50;18.37;;;27.90;84.10;;;;;;4972096;28;20447;-72
2021/09/17 11:08:56;;;;;;;18.03;16.90;;;27.80;83.50;;;;;;4972206;28;20458;-73
2021/09/17 11:11:24;;;;;;;20.20;19.20;;;28.00;82.90;;;;;;4972073;28;20474;-73
2021/09/17 11:13:52;;;;;;;19.90;18.70;;;27.10;84.10;;;;;;4972073;28;20455;-73
2021/09/17 11:16:22;;;;;;;19.60;18.27;;;26.50;86.60;;;;;;4972024;28;20460;-73
2021/09/17 11:18:53;;;;;;;20.77;19.67;;;26.30;87.60;;;;;;4972113;28;20487;-72
2021/09/17 11:21:21;;;;;;;19.10;17.90;;;25.20;90.10;;;;;;4971744;28;20472;-73
2021/09/17 11:23:51;;;;;;;19.43;18.40;;;25.30;91.60;;;;;;4971979;28;20447;-73
2021/09/17 11:26:23;;;;;;;20.37;19.17;;;25.40;90.10;;;;;;4971912;28;20499;-71
2021/09/17 11:28:59;;;;;;;17.70;16.67;;;25.70;89.80;;;;;;4971978;28;20447;-71
2021/09/17 11:31:31;;;;;;;19.07;17.97;;;26.80;86.70;;;;;;4971718;28;20451;-71
2021/09/17 11:33:59;;;;;;;18.50;17.60;;;28.50;82.50;;;;;;4972098;28;21033;-71
2021/09/17 11:36:37;;;;;;;20.17;19.07;;;30.00;77.00;;;;;;4975337;28;20463;-72
2021/09/17 11:39:18;;;;;;;18.60;17.70;;;31.00;74.10;;;;;;4975306;28;20495;-74
2021/09/17 11:41:46;;;;;;;18.37;17.47;;;31.60;68.00;;;;;;4975350;28;20460;-73
2021/09/17 11:44:29;;;;;;;18.03;17.13;;;30.70;68.40;;;;;;4978882;28;20451;-72
2021/09/17 11:46:58;;;;;;;17.60;16.80;;;29.30;72.00;;;;;;4983783;28;20444;-72
2021/09/17 11:49:26;;;;;;;16.53;15.83;;;28.60;72.90;;;;;;4982228;28;20451;-72
2021/09/17 11:52:01;;;;;;;16.80;16.00;;;27.30;74.90;;;;;;4983054;28;20458;-72
2021/09/17 11:54:28;;;;;;;16.50;15.70;;;26.70;76.70;;;;;;4982749;28;20435;-72
2021/09/17 11:57:02;;;;;;;16.70;15.77;;;26.10;77.80;;;;;;4983177;28;20780;-73
2021/09/17 11:59:36;;;;;;;16.57;15.67;;;25.20;80.60;;;;;;4982708;28;20487;-73
2021/09/17 12:02:18;;;;;;;16.30;15.20;;;24.90;83.00;;;;;;4982155;28;20439;-73
2021/09/17 12:04:49;;;;;;;15.90;15.00;;;24.70;84.30;;;;;;4981913;28;20451;-73
2021/09/17 12:07:16;;;;;;;15.40;14.70;;;24.30;85.00;;;;;;4983126;28;20502;-74
2021/09/17 12:09:43;;;;;;;16.40;15.60;;;24.30;85.20;;;;;;4983950;28;20470;-73
2021/09/17 12:12:11;;;;;;;15.97;15.17;;;24.30;87.00;;;;;;4982227;28;20537;-73
2021/09/17 12:14:38;;;;;;;14.20;13.60;;;24.30;84.20;;;;;;4985138;28;20450;-74
2021/09/17 12:17:06;;;;;;;15.70;14.93;;;24.30;84.90;;;;;;4982849;28;20444;-73
2021/09/17 12:19:56;;;;;;;14.70;14.00;;;24.10;85.00;;;;;;4981576;28;20491;-73
2021/09/17 12:22:36;;;;;;;15.77;14.67;;;24.10;82.50;;;;;;4982391;28;20471;-73
2021/09/17 12:25:09;;;;;;;14.13;13.53;;;24.10;83.60;;;;;;4982354;28;20444;-73
2021/09/17 12:27:37;;;;;;;13.90;13.20;;;24.30;82.00;;;;;;4981653;28;20490;-73
2021/09/17 12:30:07;;;;;;;13.70;13.10;;;24.10;82.10;;;;;;4982732;28;20434;-73
2021/09/17 12:32:34;;;;;;;17.07;15.57;;;24.10;81.60;;;;;;4983404;28;20435;-73
2021/09/17 12:35:08;;;;;;;16.37;15.17;;;24.30;85.00;;;;;;4981736;28;20444;-72
2021/09/17 12:37:36;;;;;;;16.00;15.10;;;24.80;82.70;;;;;;4981534;28;20435;-73
2021/09/17 12:40:11;;;;;;;15.30;14.40;;;25.00;83.70;;;;;;4982773;28;20844;-73
2021/09/17 12:42:37;;;;;;;15.47;14.63;;;25.00;81.70;;;;;;4983124;28;20442;-73
2021/09/17 12:45:07;;;;;;;15.63;14.70;;;25.00;82.90;;;;;;4981924;28;20448;-73
2021/09/17 12:47:34;;;;;;;14.87;14.20;;;25.40;79.80;;;;;;4980026;28;20551;-73
2021/09/17 12:50:10;;;;;;;15.20;14.53;;;25.80;79.70;;;;;;4982768;28;20446;-73
2021/09/17 12:52:38;;;;;;;16.27;15.27;;;25.90;77.30;;;;;;4983219;28;20455;-73
2021/09/17 12:55:22;;;;;;;14.60;14.00;;;26.50;76.00;;;;;;4981896;28;20451;-72
2021/09/17 12:58:01;;;;;;;15.37;14.67;;;27.50;75.20;;;;;;4982405;28;20455;-72
2021/09/17 13:00:33;;;;;;;14.97;14.30;;;28.30;73.10;;;;;;4982762;28;20562;-72
2021/09/17 13:03:04;;;;;;;15.20;14.50;;;29.00;71.30;;;;;;4981571;28;20452;-72
2021/09/17 13:05:32;;;;;;;15.63;14.80;;;29.60;68.40;;;;;;4981576;28;20463;-73
2021/09/17 13:07:59;;;;;;;14.77;14.17;;;29.90;66.70;;;;;;4981156;28;20444;-71
2021/09/17 13:10:26;;;;;;;15.33;14.63;;;31.00;64.50;;;;;;4981918;28;20442;-71
2021/09/17 13:12:53;;;;;;;14.83;14.17;;;31.50;62.20;;;;;;4982553;28;20459;-71
2021/09/17 13:15:20;;;;;;;15.63;15.00;;;32.60;58.20;;;;;;4981004;28;20447;-72
2021/09/17 13:17:46;;;;;;;15.40;14.80;;;32.60;55.70;;;;;;4976966;28;20946;-74
2021/09/17 13:20:13;;;;;;;15.13;14.43;;;33.10;53.90;;;;;;4973406;28;21001;-73
2021/09/17 13:22:41;;;;;;;14.93;14.20;;;32.50;53.30;;;;;;4973332;28;20483;-73
2021/09/17 13:25:09;;;;;;;16.70;15.60;;;31.10;55.90;;;;;;4973200;28;20448;-73
2021/09/17 13:27:37;;;;;;;14.37;13.87;;;28.90;57.80;;;;;;4973041;28;20459;-73
2021/09/17 13:30:05;;;;;;;15.20;14.40;;;27.10;62.90;;;;;;4973113;28;20456;-72
2021/09/17 13:32:32;;;;;;;14.60;14.00;;;25.40;68.40;;;;;;4973161;28;20460;-72
2021/09/17 13:35:00;;;;;;;14.70;14.10;;;24.90;70.10;;;;;;4973224;28;20933;-72
2021/09/17 13:37:27;;;;;;;14.80;14.20;;;24.70;70.80;;;;;;4973052;28;20448;-72
2021/09/17 13:39:55;;;;;;;15.30;14.50;;;24.70;71.30;;;;;;4973154;28;20863;-73
2021/09/17 13:42:22;;;;;;;14.33;13.63;;;24.80;72.00;;;;;;4973099;28;20965;-73
2021/09/17 13:44:48;;;;;;;15.47;14.60;;;25.00;73.70;;;;;;4973045;28;21019;-71
2021/09/17 13:47:15;;;;;;;15.17;14.47;;;25.30;73.50;;;;;;4973040;28;20452;-70
2021/09/17 13:49:42;;;;;;;14.60;13.90;;;25.20;73.90;;;;;;4972703;28;20456;-71
2021/09/17 13:52:09;;;;;;;14.50;13.80;;;24.80;77.40;;;;;;4984630;28;20467;-71
2021/09/17 13:54:36;;;;;;;15.37;14.47;;;24.60;79.40;;;;;;4992492;28;20805;-70
2021/09/17 13:57:05;;;;;;;15.00;14.23;;;24.40;79.30;;;;;;4992091;28;20542;-70
2021/09/17 13:59:32;;;;;;;16.07;15.33;;;24.40;79.50;;;;;;4992099;28;20485;-70
2021/09/17 14:01:59;;;;;;;16.47;15.37;;;24.10;80.40;;;;;;4992236;28;20463;-71
2021/09/17 14:04:26;;;;;;;16.30;15.40;;;23.60;81.40;;;;;;4992122;28;20450;-71
2021/09/17 14:06:53;;;;;;;15.40;14.70;;;23.10;82.20;;;;;;4992028;28;20957;-71
2021/09/17 14:09:20;;;;;;;15.53;14.63;;;23.00;83.80;;;;;;4991940;28;20439;-71
2021/09/17 14:11:46;;;;;;;15.73;15.03;;;23.00;85.60;;;;;;4992115;28;20458;-71
2021/09/17 14:14:14;;;;;;;15.63;14.93;;;23.00;85.90;;;;;;4992127;28;20454;-70
2021/09/17 14:16:41;;;;;;;17.00;15.57;;;22.80;86.30;;;;;;4992024;28;20948;-71
2021/09/17 14:19:08;;;;;;;16.20;15.20;;;22.70;86.70;;;;;;4991392;28;20855;-71
2021/09/17 14:21:36;;;;;;;14.80;14.10;;;22.60;88.20;;;;;;4991373;28;20482;-70
2021/09/17 14:24:03;;;;;;;15.40;14.70;;;22.50;87.20;;;;;;4984659;28;20479;-70
2021/09/17 14:26:30;;;;;;;15.97;14.83;;;22.60;87.70;;;;;;4980138;28;20954;-71
2021/09/17 14:28:57;;;;;;;16.33;15.40;;;22.80;88.50;;;;;;4979977;28;20475;-71
2021/09/17 14:31:25;;;;;;;15.47;14.57;;;22.70;88.50;;;;;;4981314;28;20462;-70
2021/09/17 14:33:51;;;;;;;16.90;15.80;;;22.70;88.40;;;;;;4980644;28;21107;-71
2021/09/17 14:36:18;;;;;;;15.40;14.60;;;22.60;88.70;;;;;;4979278;28;20449;-71
2021/09/17 14:38:46;;;;;;;15.93;15.07;;;22.60;89.30;;;;;;4979627;28;20450;-70
2021/09/17 14:41:13;;;;;;;16.67;15.57;;;22.30;88.00;;;;;;4980327;28;20443;-70
2021/09/17 14:43:40;;;;;;;15.53;14.83;;;22.30;89.10;;;;;;4981366;28;20447;-70
2021/09/17 14:46:06;;;;;;;14.87;13.83;;;22.10;89.00;;;;;;4979656;28;20690;-70
2021/09/17 14:48:35;;;;;;;15.67;14.70;;;22.10;88.70;;;;;;4979911;28;20447;-71
2021/09/17 14:51:02;;;;;;;15.57;14.77;;;22.20;88.90;;;;;;4981352;28;20976;-71
2021/09/17 14:53:28;;;;;;;15.10;14.30;;;22.20;88.80;;;;;;4979414;28;20451;-71
2021/09/17 14:55:55;;;;;;;14.50;13.80;;;22.50;87.80;;;;;;4979984;28;20447;-71
2021/09/17 14:58:22;;;;;;;16.30;15.30;;;22.60;87.20;;;;;;4981303;28;20451;-70
2021/09/17 15:00:49;;;;;;;15.97;15.17;;;22.70;86.50;;;;;;4978281;28;20484;-71
2021/09/17 15:03:16;;;;;;;16.00;15.10;;;22.60;87.00;;;;;;4985548;28;20836;-70
2021/09/17 15:05:44;;;;;;;15.83;15.13;;;22.60;86.60;;;;;;4982380;28;20455;-70
2021/09/17 15:08:11;;;;;;;15.60;14.80;;;22.50;86.60;;;;;;4989124;28;20848;-72
2021/09/17 15:11:10;;;;;;;16.00;15.30;;;22.20;87.20;;;;;;4984252;28;20462;-71
2021/09/17 15:13:37;;;;;;;15.47;14.77;;;22.30;87.50;;;;;;4970839;28;20482;-72
2021/09/17 15:16:04;;;;;;;15.13;14.50;;;22.20;88.00;;;;;;4975655;28;20458;-73
2021/09/17 15:18:31;;;;;;;14.87;14.03;;;22.20;88.50;;;;;;4975472;28;20447;-73
2021/09/17 15:20:59;;;;;;;15.13;14.43;;;22.40;88.90;;;;;;4975106;28;21028;-72
2021/09/17 15:23:26;;;;;;;13.90;13.10;;;22.50;89.20;;;;;;4975331;28;20566;-72
2021/09/17 15:25:54;;;;;;;14.27;13.67;;;22.30;88.10;;;;;;4975461;28;20456;-72
2021/09/17 15:28:20;;;;;;;15.00;14.40;;;22.10;89.50;;;;;;4975525;28;20456;-72
2021/09/17 15:30:49;;;;;;;14.93;14.23;;;22.00;90.10;;;;;;4975289;28;20459;-72
2021/09/17 15:33:16;;;;;;;15.17;14.47;;;21.80;89.00;;;;;;4975324;28;20470;-72
2021/09/17 15:35:43;;;;;;;14.40;13.80;;;21.70;89.60;;;;;;4975475;28;20447;-72
2021/09/17 15:38:11;;;;;;;14.23;13.63;;;21.60;90.10;;;;;;4974986;28;20452;-70
2021/09/17 15:40:38;;;;;;;14.57;13.97;;;21.60;90.30;;;;;;4975259;28;20524;-70
2021/09/17 15:43:05;;;;;;;15.67;14.80;;;21.50;90.90;;;;;;4975120;28;20459;-71
2021/09/17 15:45:32;;;;;;;14.93;14.23;;;21.40;90.60;;;;;;4975181;28;20459;-70
2021/09/17 15:47:58;;;;;;;14.60;13.90;;;21.40;90.70;;;;;;4974854;28;20451;-70
2021/09/17 15:50:25;;;;;;;15.13;14.43;;;21.40;90.90;;;;;;4974747;28;20451;-69
2021/09/17 15:52:52;;;;;;;14.97;14.03;;;21.40;90.80;;;;;;4974950;28;20456;-70
2021/09/17 15:55:20;;;;;;;14.40;13.80;;;21.30;90.80;;;;;;4974733;28;20462;-70
2021/09/17 15:57:47;;;;;;;14.90;14.20;;;21.20;91.20;;;;;;4974829;28;20466;-70
2021/09/17 16:00:14;;;;;;;14.20;13.53;;;21.10;91.20;;;;;;4974642;28;20499;-71
2021/09/17 16:02:42;;;;;;;14.33;13.63;;;21.00;91.30;;;;;;4974745;28;20869;-71
2021/09/17 16:05:09;;;;;;;15.10;14.40;;;20.90;91.70;;;;;;4974652;28;20448;-71
2021/09/17 16:07:36;;;;;;;14.50;13.90;;;20.80;92.20;;;;;;4974748;28;20456;-72
2021/09/17 16:10:05;;;;;;;14.67;13.97;;;20.60;92.20;;;;;;4976686;28;20464;-72
2021/09/17 16:12:33;;;;;;;14.60;13.90;;;20.50;93.40;;;;;;4974270;28;20451;-72
2021/09/17 16:15:00;;;;;;;14.00;13.50;;;20.30;93.80;;;;;;4974603;28;20818;-72
2021/09/17 16:17:28;;;;;;;14.70;13.90;;;20.20;94.20;;;;;;4974363;28;20454;-72
2021/09/17 16:19:54;;;;;;;13.80;13.00;;;20.20;95.70;;;;;;4974237;28;20487;-72
2021/09/17 16:22:21;;;;;;;14.37;13.77;;;20.00;95.90;;;;;;4973969;28;20495;-71
2021/09/17 16:24:48;;;;;;;14.20;13.53;;;19.90;96.80;;;;;;4974329;28;20459;-72
2021/09/17 16:27:15;;;;;;;15.27;14.57;;;19.90;97.40;;;;;;4974536;28;20459;-71
2021/09/17 16:29:43;;;;;;;14.43;13.77;;;19.80;97.70;;;;;;4974428;28;20443;-72
2021/09/17 16:32:11;;;;;;;14.13;13.53;;;19.70;99.10;;;;;;4974288;28;20451;-71
2021/09/17 16:34:38;;;;;;;13.30;12.60;;;19.70;99.80;;;;;;4974122;28;20447;-72
2021/09/17 16:37:05;;;;;;;14.40;13.60;;;19.60;99.90;;;;;;4973975;28;20451;-72
2021/09/17 16:39:32;;;;;;;14.67;13.97;;;19.60;99.90;;;;;;4973796;28;20455;-71
2021/09/17 16:41:59;;;;;;;13.33;12.60;;;19.50;99.90;;;;;;4973793;28;20455;-72
2021/09/17 16:44:25;;;;;;;14.53;13.83;;;19.50;99.90;;;;;;4973964;28;20532;-72
2021/09/17 16:46:53;;;;;;;14.60;13.90;;;19.50;99.90;;;;;;4973772;28;20463;-72
2021/09/17 16:49:20;;;;;;;13.40;12.80;;;19.40;99.90;;;;;;4973831;28;20451;-72
2021/09/17 16:51:47;;;;;;;14.03;13.43;;;19.30;99.90;;;;;;4973941;28;20456;-71
2021/09/17 16:54:14;;;;;;;14.27;13.47;;;19.20;99.90;;;;;;4973640;28;20463;-72
2021/09/17 16:56:41;;;;;;;14.77;13.97;;;19.20;99.90;;;;;;4973715;28;20444;-71
2021/09/17 16:59:08;;;;;;;14.00;13.20;;;19.20;99.90;;;;;;4973479;28;20456;-72
2021/09/17 17:01:34;;;;;;;14.10;13.40;;;19.10;99.90;;;;;;4973581;28;20484;-71
2021/09/17 17:04:02;;;;;;;14.00;13.40;;;19.10;99.90;;;;;;4973254;28;20787;-72
2021/09/17 17:06:29;;;;;;;14.20;13.50;;;18.90;99.90;;;;;;4973532;28;20462;-71
2021/09/17 17:08:56;;;;;;;14.60;13.90;;;18.90;99.90;;;;;;4973460;28;20452;-72
2021/09/17 17:11:23;;;;;;;14.47;13.77;;;18.70;99.90;;;;;;4973019;28;20903;-72
2021/09/17 17:13:49;;;;;;;13.63;13.03;;;18.60;99.90;;;;;;4973187;28;20459;-72
2021/09/17 17:16:16;;;;;;;14.73;14.13;;;18.60;99.90;;;;;;4973396;28;20456;-71
2021/09/17 17:18:43;;;;;;;16.30;15.07;;;18.40;99.90;;;;;;4973251;28;20464;-72
2021/09/17 17:21:11;;;;;;;14.17;13.47;;;18.40;99.90;;;;;;4973118;28;20518;-72
2021/09/17 17:23:38;;;;;;;15.67;14.77;;;18.20;99.90;;;;;;4972998;28;20496;-72
2021/09/17 17:26:05;;;;;;;14.00;13.30;;;18.20;99.90;;;;;;4972826;28;20835;-72
2021/09/17 17:28:31;;;;;;;14.50;13.47;;;18.00;99.90;;;;;;4973021;28;20478;-72
2021/09/17 17:31:00;;;;;;;14.67;13.87;;;17.90;99.90;;;;;;4973279;28;20545;-72
2021/09/17 17:33:27;;;;;;;14.53;13.73;;;17.80;99.90;;;;;;4972299;28;20443;-70
2021/09/17 17:35:53;;;;;;;14.37;13.50;;;17.70;99.90;;;;;;4973064;28;20456;-71
2021/09/17 17:38:23;;;;;;;14.30;13.60;;;17.60;99.90;;;;;;4973058;28;20463;-71
2021/09/17 17:40:50;;;;;;;14.33;13.73;;;17.50;99.90;;;;;;4972758;28;21065;-70
2021/09/17 17:43:17;;;;;;;15.13;14.00;;;17.30;99.90;;;;;;4972843;28;20455;-71
2021/09/17 17:45:43;;;;;;;14.10;13.40;;;17.30;99.90;;;;;;4972868;28;20961;-71
2021/09/17 17:48:10;;;;;;;14.70;13.90;;;17.20;99.90;;;;;;4972863;28;20464;-72
2021/09/17 17:50:38;;;;;;;16.40;15.60;;;17.20;99.90;;;;;;4972944;28;20454;-71
2021/09/17 17:53:05;;;;;;;16.20;14.93;;;17.10;99.90;;;;;;4972596;28;20456;-71
2021/09/17 17:55:34;;;;;;;16.00;15.20;;;17.00;99.90;;;;;;4972808;28;20463;-71
2021/09/17 17:58:01;;;;;;;15.27;14.57;;;17.00;99.90;;;;;;4972733;28;20455;-71